Pagrindinis puslapis
METAR-TAF:

METAR-TAF

Oro uostai :

Florø, Norvegija

platuma: 61-35N, ilguma: 005-02E, Aukštis: 0 m

Dabartinis oras

Ataskaita buvo paskelbta 35 minutes, ne 10:20 UTC
Vėjas 8 kt iš Rytų/Šiaurės Rytų
Temperatūra 17°C
Drėgmė 48%
Slėgis 989 hPa
Matomumas 10 km arba daugiau
Mažai debesys ne aukštis 3000 ft
Su prošvaistėmis ne aukštis 15000 ft

METAR: ENFL 051020Z 07008KT 9999 FEW030 BKN150 17/06 Q0989

Laikas: 12:55 (10:55 UTC)

Prognozė

Ataskaita buvo paskelbta 2 valandos ir 55 minutes, ne 08:00 UTC
Prognozė galioja nuo 05 metu 09 UTC su 05 metu 18 UTC
Vėjas 15 kt iš Rytų
Matomumas 10 km arba daugiau
Mažai debesys ne aukštis 3000 ft
Su prošvaistėmis ne aukštis 7000 ft

TAF: ENFL 050800Z 0509/0518 10015KT 9999 FEW030 BKN070

Orai ataskaitas ir orų prognozės (METAR, TAF).

turimą stotys yra geltonos ir raudonos taškus žemėlapyje.

Perkelti pele per norėdami pamatyti stoties vardą.

Tada spustelėkite, norėdami matyti oro stebėjimo ir prognozės.

Norėdami pakeisti žemėlapį: spustelėkite ant žalios mygtukų su juodo kryžiaus žemyn,; žalią mygtuką su brūkšneliu, jei norite nutolinti; arba žalių rodyklių gretimoms žemėlapius.


METAR-TAF: